sensor_id;sensor_type;location;lat;lon;timestamp;P1;durP1;ratioP1;P2;durP2;ratioP2
38427;SDS011;24211;49.980;19.776;2023-03-12T00:00:10;30.58;;;10.15;;
38427;SDS011;24211;49.980;19.776;2023-03-12T00:02:58;27.95;;;9.82;;
38427;SDS011;24211;49.980;19.776;2023-03-12T00:05:26;34.58;;;10.18;;
38427;SDS011;24211;49.980;19.776;2023-03-12T00:07:53;35.15;;;10.52;;
38427;SDS011;24211;49.980;19.776;2023-03-12T00:10:20;31.02;;;9.63;;
38427;SDS011;24211;49.980;19.776;2023-03-12T00:12:47;36.33;;;10.65;;
38427;SDS011;24211;49.980;19.776;2023-03-12T00:15:14;36.70;;;10.93;;
38427;SDS011;24211;49.980;19.776;2023-03-12T00:17:41;28.17;;;10.43;;
38427;SDS011;24211;49.980;19.776;2023-03-12T00:20:09;31.83;;;9.77;;
38427;SDS011;24211;49.980;19.776;2023-03-12T00:22:37;31.83;;;9.60;;
38427;SDS011;24211;49.980;19.776;2023-03-12T00:25:06;27.13;;;10.00;;
38427;SDS011;24211;49.980;19.776;2023-03-12T00:27:39;27.15;;;8.75;;
38427;SDS011;24211;49.980;19.776;2023-03-12T00:30:08;25.10;;;8.27;;
38427;SDS011;24211;49.980;19.776;2023-03-12T00:32:37;23.60;;;7.75;;
38427;SDS011;24211;49.980;19.776;2023-03-12T00:35:05;20.73;;;7.22;;
38427;SDS011;24211;49.980;19.776;2023-03-12T00:37:34;17.17;;;6.50;;
38427;SDS011;24211;49.980;19.776;2023-03-12T00:40:04;17.33;;;6.50;;
38427;SDS011;24211;49.980;19.776;2023-03-12T00:42:34;16.63;;;6.63;;
38427;SDS011;24211;49.980;19.776;2023-03-12T00:45:02;17.75;;;5.57;;
38427;SDS011;24211;49.980;19.776;2023-03-12T00:47:29;17.88;;;5.90;;
38427;SDS011;24211;49.980;19.776;2023-03-12T00:49:56;15.73;;;5.68;;
38427;SDS011;24211;49.980;19.776;2023-03-12T00:52:23;14.55;;;5.35;;
38427;SDS011;24211;49.980;19.776;2023-03-12T00:54:50;14.45;;;5.15;;
38427;SDS011;24211;49.980;19.776;2023-03-12T00:57:17;10.85;;;5.00;;
38427;SDS011;24211;49.980;19.776;2023-03-12T00:59:45;12.35;;;4.78;;
38427;SDS011;24211;49.980;19.776;2023-03-12T01:02:13;10.48;;;4.18;;
38427;SDS011;24211;49.980;19.776;2023-03-12T01:04:40;11.68;;;4.50;;
38427;SDS011;24211;49.980;19.776;2023-03-12T01:07:07;10.55;;;4.03;;
38427;SDS011;24211;49.980;19.776;2023-03-12T01:09:34;8.95;;;4.03;;
38427;SDS011;24211;49.980;19.776;2023-03-12T01:12:01;10.38;;;3.85;;
38427;SDS011;24211;49.980;19.776;2023-03-12T01:14:29;8.98;;;4.00;;
38427;SDS011;24211;49.980;19.776;2023-03-12T01:16:56;10.13;;;3.80;;
38427;SDS011;24211;49.980;19.776;2023-03-12T01:19:23;9.48;;;3.70;;
38427;SDS011;24211;49.980;19.776;2023-03-12T01:21:51;9.15;;;3.95;;
38427;SDS011;24211;49.980;19.776;2023-03-12T01:24:18;11.63;;;3.90;;
38427;SDS011;24211;49.980;19.776;2023-03-12T01:26:45;9.57;;;4.10;;
38427;SDS011;24211;49.980;19.776;2023-03-12T01:29:13;9.13;;;4.10;;
38427;SDS011;24211;49.980;19.776;2023-03-12T01:31:40;10.02;;;4.43;;
38427;SDS011;24211;49.980;19.776;2023-03-12T01:34:08;9.13;;;4.00;;
38427;SDS011;24211;49.980;19.776;2023-03-12T01:36:38;9.15;;;4.10;;
38427;SDS011;24211;49.980;19.776;2023-03-12T01:39:05;9.50;;;4.18;;
38427;SDS011;24211;49.980;19.776;2023-03-12T01:41:32;10.07;;;4.28;;
38427;SDS011;24211;49.980;19.776;2023-03-12T01:44:00;10.27;;;4.43;;
38427;SDS011;24211;49.980;19.776;2023-03-12T01:49:08;10.00;;;4.53;;
38427;SDS011;24211;49.980;19.776;2023-03-12T01:51:58;11.43;;;4.80;;
38427;SDS011;24211;49.980;19.776;2023-03-12T01:54:40;11.75;;;4.75;;
38427;SDS011;24211;49.980;19.776;2023-03-12T01:57:13;10.23;;;4.53;;
38427;SDS011;24211;49.980;19.776;2023-03-12T01:59:49;11.18;;;4.40;;
38427;SDS011;24211;49.980;19.776;2023-03-12T02:02:22;10.25;;;4.78;;
38427;SDS011;24211;49.980;19.776;2023-03-12T02:04:59;9.02;;;4.45;;
38427;SDS011;24211;49.980;19.776;2023-03-12T02:07:38;11.70;;;4.90;;
38427;SDS011;24211;49.980;19.776;2023-03-12T02:10:06;10.43;;;4.75;;
38427;SDS011;24211;49.980;19.776;2023-03-12T02:12:34;11.68;;;5.22;;
38427;SDS011;24211;49.980;19.776;2023-03-12T02:15:02;10.63;;;4.70;;
38427;SDS011;24211;49.980;19.776;2023-03-12T02:17:30;11.48;;;4.72;;
38427;SDS011;24211;49.980;19.776;2023-03-12T02:20:18;12.43;;;4.65;;
38427;SDS011;24211;49.980;19.776;2023-03-12T02:23:09;10.35;;;4.35;;
38427;SDS011;24211;49.980;19.776;2023-03-12T02:25:50;12.93;;;4.85;;
38427;SDS011;24211;49.980;19.776;2023-03-12T02:28:20;11.13;;;4.75;;
38427;SDS011;24211;49.980;19.776;2023-03-12T02:30:53;11.15;;;4.70;;
38427;SDS011;24211;49.980;19.776;2023-03-12T02:33:25;11.68;;;4.72;;
38427;SDS011;24211;49.980;19.776;2023-03-12T02:35:53;11.43;;;4.80;;
38427;SDS011;24211;49.980;19.776;2023-03-12T02:38:37;11.50;;;4.43;;
38427;SDS011;24211;49.980;19.776;2023-03-12T02:44:03;13.35;;;4.90;;
38427;SDS011;24211;49.980;19.776;2023-03-12T02:46:42;9.27;;;4.80;;
38427;SDS011;24211;49.980;19.776;2023-03-12T02:49:16;10.80;;;4.70;;
38427;SDS011;24211;49.980;19.776;2023-03-12T02:51:47;13.30;;;5.43;;
38427;SDS011;24211;49.980;19.776;2023-03-12T02:54:15;14.30;;;5.30;;
38427;SDS011;24211;49.980;19.776;2023-03-12T02:56:46;12.23;;;5.63;;
38427;SDS011;24211;49.980;19.776;2023-03-12T02:59:14;9.77;;;4.70;;
38427;SDS011;24211;49.980;19.776;2023-03-12T03:01:44;10.82;;;4.85;;
38427;SDS011;24211;49.980;19.776;2023-03-12T03:04:11;8.88;;;4.10;;
38427;SDS011;24211;49.980;19.776;2023-03-12T03:06:40;9.80;;;4.00;;
38427;SDS011;24211;49.980;19.776;2023-03-12T03:09:10;10.77;;;4.40;;
38427;SDS011;24211;49.980;19.776;2023-03-12T03:11:37;8.82;;;3.88;;
38427;SDS011;24211;49.980;19.776;2023-03-12T03:14:06;8.93;;;3.85;;
38427;SDS011;24211;49.980;19.776;2023-03-12T03:16:34;9.63;;;4.00;;
38427;SDS011;24211;49.980;19.776;2023-03-12T03:19:01;10.25;;;4.00;;
38427;SDS011;24211;49.980;19.776;2023-03-12T03:21:29;9.65;;;3.88;;
38427;SDS011;24211;49.980;19.776;2023-03-12T03:23:57;10.77;;;4.60;;
38427;SDS011;24211;49.980;19.776;2023-03-12T03:26:24;8.98;;;4.30;;
38427;SDS011;24211;49.980;19.776;2023-03-12T03:28:53;10.88;;;4.70;;
38427;SDS011;24211;49.980;19.776;2023-03-12T03:31:21;13.70;;;5.05;;
38427;SDS011;24211;49.980;19.776;2023-03-12T03:33:48;15.02;;;5.03;;
38427;SDS011;24211;49.980;19.776;2023-03-12T03:36:16;13.80;;;5.40;;
38427;SDS011;24211;49.980;19.776;2023-03-12T03:38:52;14.20;;;5.60;;
38427;SDS011;24211;49.980;19.776;2023-03-12T03:41:19;12.45;;;5.22;;
38427;SDS011;24211;49.980;19.776;2023-03-12T03:43:48;11.82;;;4.72;;
38427;SDS011;24211;49.980;19.776;2023-03-12T03:46:17;12.73;;;4.93;;
38427;SDS011;24211;49.980;19.776;2023-03-12T03:48:50;12.43;;;4.88;;
38427;SDS011;24211;49.980;19.776;2023-03-12T03:51:17;10.50;;;4.88;;
38427;SDS011;24211;49.980;19.776;2023-03-12T03:53:48;11.63;;;4.82;;
38427;SDS011;24211;49.980;19.776;2023-03-12T03:56:16;10.65;;;4.63;;
38427;SDS011;24211;49.980;19.776;2023-03-12T03:58:46;11.55;;;4.80;;
38427;SDS011;24211;49.980;19.776;2023-03-12T04:01:15;10.20;;;4.18;;
38427;SDS011;24211;49.980;19.776;2023-03-12T04:03:44;10.45;;;4.63;;
38427;SDS011;24211;49.980;19.776;2023-03-12T04:06:12;10.32;;;4.80;;
38427;SDS011;24211;49.980;19.776;2023-03-12T04:08:40;12.23;;;4.78;;
38427;SDS011;24211;49.980;19.776;2023-03-12T04:11:12;10.45;;;4.32;;
38427;SDS011;24211;49.980;19.776;2023-03-12T04:13:48;9.90;;;3.78;;
38427;SDS011;24211;49.980;19.776;2023-03-12T04:16:19;10.23;;;4.40;;
38427;SDS011;24211;49.980;19.776;2023-03-12T04:18:49;9.45;;;3.72;;
38427;SDS011;24211;49.980;19.776;2023-03-12T04:21:17;9.73;;;4.10;;
38427;SDS011;24211;49.980;19.776;2023-03-12T04:23:47;11.02;;;4.68;;
38427;SDS011;24211;49.980;19.776;2023-03-12T04:26:15;9.38;;;4.07;;
38427;SDS011;24211;49.980;19.776;2023-03-12T04:28:43;10.40;;;4.18;;
38427;SDS011;24211;49.980;19.776;2023-03-12T04:31:10;12.13;;;4.13;;
38427;SDS011;24211;49.980;19.776;2023-03-12T04:36:11;11.88;;;3.90;;
38427;SDS011;24211;49.980;19.776;2023-03-12T04:38:42;8.13;;;3.53;;
38427;SDS011;24211;49.980;19.776;2023-03-12T04:41:11;9.13;;;3.55;;
38427;SDS011;24211;49.980;19.776;2023-03-12T04:43:54;10.27;;;3.95;;
38427;SDS011;24211;49.980;19.776;2023-03-12T04:46:22;8.48;;;3.65;;
38427;SDS011;24211;49.980;19.776;2023-03-12T04:48:49;10.27;;;3.70;;
38427;SDS011;24211;49.980;19.776;2023-03-12T04:51:17;9.27;;;3.95;;
38427;SDS011;24211;49.980;19.776;2023-03-12T04:53:44;8.93;;;3.72;;
38427;SDS011;24211;49.980;19.776;2023-03-12T04:56:13;9.60;;;3.83;;
38427;SDS011;24211;49.980;19.776;2023-03-12T04:58:43;8.32;;;3.55;;
38427;SDS011;24211;49.980;19.776;2023-03-12T05:01:15;7.95;;;3.33;;
38427;SDS011;24211;49.980;19.776;2023-03-12T05:03:54;7.07;;;2.83;;
38427;SDS011;24211;49.980;19.776;2023-03-12T05:06:23;9.55;;;3.08;;
38427;SDS011;24211;49.980;19.776;2023-03-12T05:08:51;7.70;;;3.20;;
38427;SDS011;24211;49.980;19.776;2023-03-12T05:11:19;8.23;;;2.92;;
38427;SDS011;24211;49.980;19.776;2023-03-12T05:13:47;7.15;;;2.80;;
38427;SDS011;24211;49.980;19.776;2023-03-12T05:16:15;6.05;;;2.55;;
38427;SDS011;24211;49.980;19.776;2023-03-12T05:18:43;6.65;;;2.70;;
38427;SDS011;24211;49.980;19.776;2023-03-12T05:21:13;5.85;;;2.58;;
38427;SDS011;24211;49.980;19.776;2023-03-12T05:23:45;5.57;;;2.55;;
38427;SDS011;24211;49.980;19.776;2023-03-12T05:26:17;5.30;;;2.38;;
38427;SDS011;24211;49.980;19.776;2023-03-12T05:29:23;6.70;;;2.40;;
38427;SDS011;24211;49.980;19.776;2023-03-12T05:31:52;5.70;;;2.50;;
38427;SDS011;24211;49.980;19.776;2023-03-12T05:34:19;6.47;;;2.53;;
38427;SDS011;24211;49.980;19.776;2023-03-12T05:36:46;6.25;;;2.30;;
38427;SDS011;24211;49.980;19.776;2023-03-12T05:39:18;7.53;;;2.60;;
38427;SDS011;24211;49.980;19.776;2023-03-12T05:41:46;5.45;;;2.22;;
38427;SDS011;24211;49.980;19.776;2023-03-12T05:44:16;5.55;;;2.30;;
38427;SDS011;24211;49.980;19.776;2023-03-12T05:46:49;6.13;;;2.40;;
38427;SDS011;24211;49.980;19.776;2023-03-12T05:49:18;6.20;;;2.50;;
38427;SDS011;24211;49.980;19.776;2023-03-12T05:51:47;6.53;;;2.70;;
38427;SDS011;24211;49.980;19.776;2023-03-12T05:54:17;6.43;;;2.65;;
38427;SDS011;24211;49.980;19.776;2023-03-12T05:56:47;7.75;;;2.70;;
38427;SDS011;24211;49.980;19.776;2023-03-12T05:59:14;6.30;;;2.15;;
38427;SDS011;24211;49.980;19.776;2023-03-12T06:01:42;5.38;;;2.08;;
38427;SDS011;24211;49.980;19.776;2023-03-12T06:04:10;5.47;;;2.10;;
38427;SDS011;24211;49.980;19.776;2023-03-12T06:06:38;4.88;;;2.00;;
38427;SDS011;24211;49.980;19.776;2023-03-12T06:09:05;8.43;;;3.10;;
38427;SDS011;24211;49.980;19.776;2023-03-12T06:11:33;11.23;;;4.22;;
38427;SDS011;24211;49.980;19.776;2023-03-12T06:14:00;14.57;;;4.93;;
38427;SDS011;24211;49.980;19.776;2023-03-12T06:16:29;15.90;;;5.28;;
38427;SDS011;24211;49.980;19.776;2023-03-12T06:18:57;20.23;;;6.15;;
38427;SDS011;24211;49.980;19.776;2023-03-12T06:21:32;20.13;;;6.57;;
38427;SDS011;24211;49.980;19.776;2023-03-12T06:24:04;20.10;;;6.30;;
38427;SDS011;24211;49.980;19.776;2023-03-12T06:26:39;18.17;;;6.00;;
38427;SDS011;24211;49.980;19.776;2023-03-12T06:29:07;16.98;;;5.97;;
38427;SDS011;24211;49.980;19.776;2023-03-12T06:31:34;21.45;;;6.43;;
38427;SDS011;24211;49.980;19.776;2023-03-12T06:34:04;19.08;;;6.68;;
38427;SDS011;24211;49.980;19.776;2023-03-12T06:36:32;21.05;;;7.25;;
38427;SDS011;24211;49.980;19.776;2023-03-12T06:38:59;18.23;;;6.78;;
38427;SDS011;24211;49.980;19.776;2023-03-12T06:41:26;18.70;;;6.25;;
38427;SDS011;24211;49.980;19.776;2023-03-12T06:43:53;19.05;;;6.53;;
38427;SDS011;24211;49.980;19.776;2023-03-12T06:46:21;16.95;;;6.35;;
38427;SDS011;24211;49.980;19.776;2023-03-12T06:48:50;18.08;;;5.65;;
38427;SDS011;24211;49.980;19.776;2023-03-12T06:51:18;16.88;;;5.90;;
38427;SDS011;24211;49.980;19.776;2023-03-12T06:53:45;12.50;;;5.03;;
38427;SDS011;24211;49.980;19.776;2023-03-12T06:56:13;13.38;;;5.15;;
38427;SDS011;24211;49.980;19.776;2023-03-12T06:58:40;13.43;;;4.60;;
38427;SDS011;24211;49.980;19.776;2023-03-12T07:01:08;10.27;;;3.85;;
38427;SDS011;24211;49.980;19.776;2023-03-12T07:03:35;8.73;;;3.58;;
38427;SDS011;24211;49.980;19.776;2023-03-12T07:06:03;9.60;;;3.60;;
38427;SDS011;24211;49.980;19.776;2023-03-12T07:08:31;7.82;;;3.20;;
38427;SDS011;24211;49.980;19.776;2023-03-12T07:10:58;8.57;;;3.20;;
38427;SDS011;24211;49.980;19.776;2023-03-12T07:13:27;7.30;;;2.78;;
38427;SDS011;24211;49.980;19.776;2023-03-12T07:15:56;6.25;;;2.40;;
38427;SDS011;24211;49.980;19.776;2023-03-12T07:18:23;4.68;;;2.13;;
38427;SDS011;24211;49.980;19.776;2023-03-12T07:20:51;7.55;;;2.60;;
38427;SDS011;24211;49.980;19.776;2023-03-12T07:23:19;6.05;;;2.35;;
38427;SDS011;24211;49.980;19.776;2023-03-12T07:25:47;6.82;;;2.17;;
38427;SDS011;24211;49.980;19.776;2023-03-12T07:28:16;6.53;;;2.05;;
38427;SDS011;24211;49.980;19.776;2023-03-12T07:30:44;5.00;;;2.00;;
38427;SDS011;24211;49.980;19.776;2023-03-12T07:33:16;5.40;;;1.98;;
38427;SDS011;24211;49.980;19.776;2023-03-12T07:35:47;7.38;;;2.30;;
38427;SDS011;24211;49.980;19.776;2023-03-12T07:38:17;5.38;;;2.00;;
38427;SDS011;24211;49.980;19.776;2023-03-12T07:40:55;5.30;;;2.20;;
38427;SDS011;24211;49.980;19.776;2023-03-12T07:43:24;4.43;;;1.90;;
38427;SDS011;24211;49.980;19.776;2023-03-12T07:45:53;5.63;;;2.03;;
38427;SDS011;24211;49.980;19.776;2023-03-12T07:48:21;6.28;;;2.20;;
38427;SDS011;24211;49.980;19.776;2023-03-12T07:50:48;6.35;;;2.13;;
38427;SDS011;24211;49.980;19.776;2023-03-12T07:53:16;5.78;;;2.20;;
38427;SDS011;24211;49.980;19.776;2023-03-12T07:55:44;4.90;;;2.08;;
38427;SDS011;24211;49.980;19.776;2023-03-12T07:58:14;6.30;;;2.00;;
38427;SDS011;24211;49.980;19.776;2023-03-12T08:00:43;6.80;;;2.30;;
38427;SDS011;24211;49.980;19.776;2023-03-12T08:03:11;6.22;;;2.10;;
38427;SDS011;24211;49.980;19.776;2023-03-12T08:05:39;5.85;;;1.88;;
38427;SDS011;24211;49.980;19.776;2023-03-12T08:08:07;6.03;;;2.00;;
38427;SDS011;24211;49.980;19.776;2023-03-12T08:10:35;5.55;;;1.73;;
38427;SDS011;24211;49.980;19.776;2023-03-12T08:13:03;5.60;;;2.10;;
38427;SDS011;24211;49.980;19.776;2023-03-12T08:15:30;6.22;;;1.90;;
38427;SDS011;24211;49.980;19.776;2023-03-12T08:17:59;5.10;;;2.10;;
38427;SDS011;24211;49.980;19.776;2023-03-12T08:20:27;6.45;;;1.88;;
38427;SDS011;24211;49.980;19.776;2023-03-12T08:22:54;5.43;;;1.90;;
38427;SDS011;24211;49.980;19.776;2023-03-12T08:25:21;5.20;;;1.52;;
38427;SDS011;24211;49.980;19.776;2023-03-12T08:27:50;5.43;;;1.98;;
38427;SDS011;24211;49.980;19.776;2023-03-12T08:30:18;5.15;;;1.92;;
38427;SDS011;24211;49.980;19.776;2023-03-12T08:32:45;6.20;;;1.92;;
38427;SDS011;24211;49.980;19.776;2023-03-12T08:35:12;7.30;;;2.38;;
38427;SDS011;24211;49.980;19.776;2023-03-12T08:37:40;6.93;;;2.35;;
38427;SDS011;24211;49.980;19.776;2023-03-12T08:40:07;6.72;;;2.22;;
38427;SDS011;24211;49.980;19.776;2023-03-12T08:42:40;4.82;;;1.50;;
38427;SDS011;24211;49.980;19.776;2023-03-12T08:45:10;5.18;;;1.52;;
38427;SDS011;24211;49.980;19.776;2023-03-12T08:47:40;4.50;;;1.58;;
38427;SDS011;24211;49.980;19.776;2023-03-12T08:50:09;4.03;;;1.42;;
38427;SDS011;24211;49.980;19.776;2023-03-12T08:52:40;4.13;;;1.30;;
38427;SDS011;24211;49.980;19.776;2023-03-12T08:55:10;4.72;;;1.60;;
38427;SDS011;24211;49.980;19.776;2023-03-12T08:57:38;4.53;;;1.30;;
38427;SDS011;24211;49.980;19.776;2023-03-12T09:00:06;4.47;;;1.63;;
38427;SDS011;24211;49.980;19.776;2023-03-12T09:02:37;5.93;;;1.70;;
38427;SDS011;24211;49.980;19.776;2023-03-12T09:05:05;5.43;;;1.58;;
38427;SDS011;24211;49.980;19.776;2023-03-12T09:07:33;2.53;;;0.88;;
38427;SDS011;24211;49.980;19.776;2023-03-12T09:10:00;3.90;;;1.23;;
38427;SDS011;24211;49.980;19.776;2023-03-12T09:12:27;3.72;;;1.50;;
38427;SDS011;24211;49.980;19.776;2023-03-12T09:14:55;4.95;;;1.50;;
38427;SDS011;24211;49.980;19.776;2023-03-12T09:17:31;4.07;;;0.98;;
38427;SDS011;24211;49.980;19.776;2023-03-12T09:19:58;3.33;;;1.30;;
38427;SDS011;24211;49.980;19.776;2023-03-12T09:22:28;4.20;;;1.20;;
38427;SDS011;24211;49.980;19.776;2023-03-12T09:24:56;3.08;;;1.27;;
38427;SDS011;24211;49.980;19.776;2023-03-12T09:27:23;4.93;;;1.60;;
38427;SDS011;24211;49.980;19.776;2023-03-12T09:29:52;3.83;;;1.40;;
38427;SDS011;24211;49.980;19.776;2023-03-12T09:32:27;2.90;;;0.90;;
38427;SDS011;24211;49.980;19.776;2023-03-12T09:34:55;4.75;;;1.35;;
38427;SDS011;24211;49.980;19.776;2023-03-12T09:37:22;6.18;;;1.80;;
38427;SDS011;24211;49.980;19.776;2023-03-12T09:39:50;7.15;;;1.60;;
38427;SDS011;24211;49.980;19.776;2023-03-12T09:43:02;3.67;;;1.38;;
38427;SDS011;24211;49.980;19.776;2023-03-12T09:45:19;1.35;;;0.52;;
38427;SDS011;24211;49.980;19.776;2023-03-12T09:47:54;3.70;;;1.02;;
38427;SDS011;24211;49.980;19.776;2023-03-12T09:50:33;4.07;;;1.20;;
38427;SDS011;24211;49.980;19.776;2023-03-12T09:53:26;4.57;;;1.17;;
38427;SDS011;24211;49.980;19.776;2023-03-12T09:56:09;4.65;;;1.35;;
38427;SDS011;24211;49.980;19.776;2023-03-12T09:58:43;3.50;;;1.30;;
38427;SDS011;24211;49.980;19.776;2023-03-12T10:01:24;4.43;;;1.40;;
38427;SDS011;24211;49.980;19.776;2023-03-12T10:12:39;3.65;;;1.38;;
38427;SDS011;24211;49.980;19.776;2023-03-12T10:15:30;6.20;;;1.70;;
38427;SDS011;24211;49.980;19.776;2023-03-12T10:21:12;6.18;;;1.90;;
38427;SDS011;24211;49.980;19.776;2023-03-12T10:24:29;5.57;;;1.85;;
38427;SDS011;24211;49.980;19.776;2023-03-12T10:26:54;3.45;;;1.20;;
38427;SDS011;24211;49.980;19.776;2023-03-12T10:29:34;5.55;;;2.13;;
38427;SDS011;24211;49.980;19.776;2023-03-12T10:32:14;3.95;;;1.65;;
38427;SDS011;24211;49.980;19.776;2023-03-12T10:34:48;6.78;;;2.00;;
38427;SDS011;24211;49.980;19.776;2023-03-12T10:37:35;5.32;;;2.10;;
38427;SDS011;24211;49.980;19.776;2023-03-12T10:40:14;5.50;;;1.88;;
38427;SDS011;24211;49.980;19.776;2023-03-12T10:42:44;9.73;;;2.60;;
38427;SDS011;24211;49.980;19.776;2023-03-12T10:46:00;5.32;;;2.00;;
38427;SDS011;24211;49.980;19.776;2023-03-12T10:48:09;5.65;;;2.10;;
38427;SDS011;24211;49.980;19.776;2023-03-12T10:50:59;5.90;;;2.30;;
38427;SDS011;24211;49.980;19.776;2023-03-12T10:53:27;4.53;;;1.90;;
38427;SDS011;24211;49.980;19.776;2023-03-12T10:55:58;5.35;;;2.13;;
38427;SDS011;24211;49.980;19.776;2023-03-12T10:58:47;10.43;;;2.40;;
38427;SDS011;24211;49.980;19.776;2023-03-12T11:03:52;5.82;;;2.33;;
38427;SDS011;24211;49.980;19.776;2023-03-12T11:06:40;5.00;;;1.90;;
38427;SDS011;24211;49.980;19.776;2023-03-12T11:11:43;6.55;;;2.20;;
38427;SDS011;24211;49.980;19.776;2023-03-12T11:16:50;5.72;;;1.83;;
38427;SDS011;24211;49.980;19.776;2023-03-12T11:19:29;7.63;;;2.35;;
38427;SDS011;24211;49.980;19.776;2023-03-12T11:22:03;9.77;;;2.78;;
38427;SDS011;24211;49.980;19.776;2023-03-12T11:25:03;7.85;;;2.80;;
38427;SDS011;24211;49.980;19.776;2023-03-12T11:27:43;10.40;;;3.00;;
38427;SDS011;24211;49.980;19.776;2023-03-12T11:30:18;13.27;;;3.70;;
38427;SDS011;24211;49.980;19.776;2023-03-12T11:32:55;10.27;;;3.47;;
38427;SDS011;24211;49.980;19.776;2023-03-12T11:35:34;8.90;;;3.35;;
38427;SDS011;24211;49.980;19.776;2023-03-12T11:38:34;9.45;;;3.10;;
38427;SDS011;24211;49.980;19.776;2023-03-12T11:44:31;9.38;;;2.40;;
38427;SDS011;24211;49.980;19.776;2023-03-12T11:47:31;8.10;;;2.88;;
38427;SDS011;24211;49.980;19.776;2023-03-12T11:50:14;6.13;;;2.30;;
38427;SDS011;24211;49.980;19.776;2023-03-12T12:04:43;10.73;;;4.05;;
38427;SDS011;24211;49.980;19.776;2023-03-12T12:10:49;9.35;;;3.63;;
38427;SDS011;24211;49.980;19.776;2023-03-12T12:13:51;7.60;;;2.42;;
38427;SDS011;24211;49.980;19.776;2023-03-12T12:16:48;5.53;;;2.00;;
38427;SDS011;24211;49.980;19.776;2023-03-12T12:20:00;7.28;;;2.40;;
38427;SDS011;24211;49.980;19.776;2023-03-12T12:25:55;9.15;;;2.60;;
38427;SDS011;24211;49.980;19.776;2023-03-12T12:28:35;7.30;;;2.50;;
38427;SDS011;24211;49.980;19.776;2023-03-12T12:36:48;8.23;;;3.08;;
38427;SDS011;24211;49.980;19.776;2023-03-12T12:39:29;5.50;;;2.42;;
38427;SDS011;24211;49.980;19.776;2023-03-12T12:42:04;6.00;;;2.30;;
38427;SDS011;24211;49.980;19.776;2023-03-12T12:44:46;7.03;;;3.08;;
38427;SDS011;24211;49.980;19.776;2023-03-12T12:47:21;6.65;;;2.53;;
38427;SDS011;24211;49.980;19.776;2023-03-12T12:50:03;6.82;;;2.78;;
38427;SDS011;24211;49.980;19.776;2023-03-12T12:52:31;7.07;;;2.38;;
38427;SDS011;24211;49.980;19.776;2023-03-12T12:55:10;5.47;;;2.45;;
38427;SDS011;24211;49.980;19.776;2023-03-12T13:00:54;6.85;;;2.40;;
38427;SDS011;24211;49.980;19.776;2023-03-12T13:03:26;4.78;;;2.15;;
38427;SDS011;24211;49.980;19.776;2023-03-12T13:05:57;5.55;;;2.25;;
38427;SDS011;24211;49.980;19.776;2023-03-12T13:16:38;15.00;;;4.80;;
38427;SDS011;24211;49.980;19.776;2023-03-12T13:21:49;13.77;;;4.28;;
38427;SDS011;24211;49.980;19.776;2023-03-12T13:24:47;11.48;;;3.72;;
38427;SDS011;24211;49.980;19.776;2023-03-12T13:27:29;12.27;;;4.50;;
38427;SDS011;24211;49.980;19.776;2023-03-12T13:35:29;9.35;;;2.95;;
38427;SDS011;24211;49.980;19.776;2023-03-12T13:38:08;8.18;;;3.42;;
38427;SDS011;24211;49.980;19.776;2023-03-12T13:40:53;9.80;;;3.65;;
38427;SDS011;24211;49.980;19.776;2023-03-12T13:43:39;10.65;;;3.60;;
38427;SDS011;24211;49.980;19.776;2023-03-12T13:48:45;7.57;;;2.70;;
38427;SDS011;24211;49.980;19.776;2023-03-12T13:51:16;6.55;;;2.15;;
38427;SDS011;24211;49.980;19.776;2023-03-12T13:56:25;6.88;;;2.00;;
38427;SDS011;24211;49.980;19.776;2023-03-12T13:59:06;5.78;;;2.40;;
38427;SDS011;24211;49.980;19.776;2023-03-12T14:01:47;4.38;;;1.98;;
38427;SDS011;24211;49.980;19.776;2023-03-12T14:04:20;8.65;;;2.90;;
38427;SDS011;24211;49.980;19.776;2023-03-12T14:10:08;6.68;;;2.50;;
38427;SDS011;24211;49.980;19.776;2023-03-12T14:12:53;7.55;;;2.58;;
38427;SDS011;24211;49.980;19.776;2023-03-12T14:15:48;6.70;;;2.25;;
38427;SDS011;24211;49.980;19.776;2023-03-12T14:18:45;6.07;;;2.20;;
38427;SDS011;24211;49.980;19.776;2023-03-12T14:21:15;5.40;;;2.05;;
38427;SDS011;24211;49.980;19.776;2023-03-12T14:23:54;4.47;;;1.98;;
38427;SDS011;24211;49.980;19.776;2023-03-12T14:26:30;7.10;;;2.47;;
38427;SDS011;24211;49.980;19.776;2023-03-12T14:29:03;5.25;;;1.80;;
38427;SDS011;24211;49.980;19.776;2023-03-12T14:31:40;7.57;;;2.20;;
38427;SDS011;24211;49.980;19.776;2023-03-12T14:34:11;8.13;;;2.80;;
38427;SDS011;24211;49.980;19.776;2023-03-12T14:37:02;9.48;;;2.65;;
38427;SDS011;24211;49.980;19.776;2023-03-12T14:39:50;8.43;;;2.47;;
38427;SDS011;24211;49.980;19.776;2023-03-12T14:42:29;12.00;;;2.90;;
38427;SDS011;24211;49.980;19.776;2023-03-12T14:45:01;9.65;;;3.42;;
38427;SDS011;24211;49.980;19.776;2023-03-12T14:47:38;9.35;;;3.50;;
38427;SDS011;24211;49.980;19.776;2023-03-12T14:50:27;8.65;;;2.80;;
38427;SDS011;24211;49.980;19.776;2023-03-12T14:53:13;8.18;;;2.80;;
38427;SDS011;24211;49.980;19.776;2023-03-12T14:56:06;9.55;;;2.80;;
38427;SDS011;24211;49.980;19.776;2023-03-12T14:58:44;10.82;;;3.67;;
38427;SDS011;24211;49.980;19.776;2023-03-12T15:01:16;9.60;;;3.33;;
38427;SDS011;24211;49.980;19.776;2023-03-12T15:03:49;11.15;;;3.50;;
38427;SDS011;24211;49.980;19.776;2023-03-12T15:09:01;10.25;;;3.33;;
38427;SDS011;24211;49.980;19.776;2023-03-12T15:11:33;11.40;;;3.45;;
38427;SDS011;24211;49.980;19.776;2023-03-12T15:14:03;7.25;;;2.78;;
38427;SDS011;24211;49.980;19.776;2023-03-12T15:16:37;8.45;;;2.85;;
38427;SDS011;24211;49.980;19.776;2023-03-12T15:19:05;10.27;;;3.50;;
38427;SDS011;24211;49.980;19.776;2023-03-12T15:21:39;10.57;;;3.78;;
38427;SDS011;24211;49.980;19.776;2023-03-12T15:24:08;10.90;;;3.95;;
38427;SDS011;24211;49.980;19.776;2023-03-12T15:26:39;10.85;;;3.85;;
38427;SDS011;24211;49.980;19.776;2023-03-12T15:31:46;8.60;;;3.47;;
38427;SDS011;24211;49.980;19.776;2023-03-12T15:34:31;11.25;;;3.42;;
38427;SDS011;24211;49.980;19.776;2023-03-12T15:39:50;6.85;;;2.75;;
38427;SDS011;24211;49.980;19.776;2023-03-12T15:42:22;7.53;;;2.67;;
38427;SDS011;24211;49.980;19.776;2023-03-12T15:44:53;6.18;;;2.75;;
38427;SDS011;24211;49.980;19.776;2023-03-12T15:47:28;7.30;;;2.78;;
38427;SDS011;24211;49.980;19.776;2023-03-12T15:50:00;7.65;;;3.05;;
38427;SDS011;24211;49.980;19.776;2023-03-12T15:55:33;6.65;;;2.67;;
38427;SDS011;24211;49.980;19.776;2023-03-12T15:58:02;6.57;;;2.70;;
38427;SDS011;24211;49.980;19.776;2023-03-12T16:00:51;6.55;;;2.90;;
38427;SDS011;24211;49.980;19.776;2023-03-12T16:03:19;5.47;;;2.60;;
38427;SDS011;24211;49.980;19.776;2023-03-12T16:05:49;6.78;;;2.75;;
38427;SDS011;24211;49.980;19.776;2023-03-12T16:08:17;6.38;;;2.85;;
38427;SDS011;24211;49.980;19.776;2023-03-12T16:10:51;9.77;;;2.92;;
38427;SDS011;24211;49.980;19.776;2023-03-12T16:13:19;7.20;;;2.85;;
38427;SDS011;24211;49.980;19.776;2023-03-12T16:15:52;7.20;;;2.72;;
38427;SDS011;24211;49.980;19.776;2023-03-12T16:18:20;6.78;;;2.60;;
38427;SDS011;24211;49.980;19.776;2023-03-12T16:20:51;7.00;;;3.10;;
38427;SDS011;24211;49.980;19.776;2023-03-12T16:23:19;7.22;;;2.70;;
38427;SDS011;24211;49.980;19.776;2023-03-12T16:25:48;8.25;;;2.80;;
38427;SDS011;24211;49.980;19.776;2023-03-12T16:28:20;8.45;;;2.78;;
38427;SDS011;24211;49.980;19.776;2023-03-12T16:30:49;7.53;;;2.95;;
38427;SDS011;24211;49.980;19.776;2023-03-12T16:33:19;7.75;;;3.00;;